Time;durP1;ratioP1;P1;durP2;ratioP2;P2;SDS_P1;SDS_P2;PMS_P1;PMS_P2;Temp;Humidity;BMP_temperature;BMP_pressure;BME280_temperature;BME280_humidity;BME280_pressure;Samples;Min_cycle;Max_cycle;Signal;HPM_P1;HPM_P2
2022/07/20 00:01:16;;;;;;;7.63;4.70;;;26.50;45.10;;;;;;7375316;19;20444;-46
2022/07/20 00:03:46;;;;;;;6.80;4.60;;;26.50;45.20;;;;;;7383255;19;20464;-47
2022/07/20 00:06:15;;;;;;;6.43;4.20;;;26.60;45.10;;;;;;7376387;19;20428;-46
2022/07/20 00:11:41;;;;;;;5.80;4.53;;;26.70;45.10;;;;;;7374168;19;20373;-46
2022/07/20 00:14:13;;;;;;;5.40;4.67;;;26.70;45.10;;;;;;7380319;19;20375;-46
2022/07/20 00:16:44;;;;;;;5.60;4.37;;;26.80;45.10;;;;;;7377158;19;20368;-46
2022/07/20 00:19:14;;;;;;;5.37;4.60;;;26.70;45.50;;;;;;7380716;19;20428;-46
2022/07/20 00:21:44;;;;;;;8.03;4.70;;;26.70;45.00;;;;;;7374951;19;20399;-46
2022/07/20 00:24:13;;;;;;;5.40;3.93;;;26.70;45.20;;;;;;7383744;19;20459;-46
2022/07/20 00:26:45;;;;;;;6.73;5.90;;;26.50;45.50;;;;;;7382286;19;21115;-46
2022/07/20 00:29:15;;;;;;;5.97;4.53;;;26.50;45.80;;;;;;7379515;19;20936;-46
2022/07/20 00:31:44;;;;;;;7.30;4.70;;;26.30;45.90;;;;;;7374864;19;20973;-46
2022/07/20 00:34:14;;;;;;;5.57;4.90;;;26.20;46.30;;;;;;7378352;19;20363;-46
2022/07/20 00:36:43;;;;;;;4.50;4.07;;;26.10;46.40;;;;;;7375683;19;20398;-45
2022/07/20 00:39:13;;;;;;;5.47;4.33;;;26.10;46.40;;;;;;7376624;19;20877;-46
2022/07/20 00:41:45;;;;;;;5.60;4.53;;;26.00;46.70;;;;;;7377152;19;20960;-46
2022/07/20 00:44:14;;;;;;;6.70;5.33;;;25.90;47.20;;;;;;7379716;19;20444;-46
2022/07/20 00:46:47;;;;;;;5.20;4.30;;;25.70;47.40;;;;;;7379855;19;20379;-46
2022/07/20 00:49:18;;;;;;;7.10;4.43;;;25.50;48.00;;;;;;7381857;19;20398;-46
2022/07/20 00:51:48;;;;;;;6.90;5.07;;;25.50;47.60;;;;;;7382656;19;20379;-46
2022/07/20 00:54:18;;;;;;;5.37;4.40;;;25.60;47.40;;;;;;7376776;19;20374;-46
2022/07/20 00:56:50;;;;;;;10.83;4.87;;;25.80;47.50;;;;;;7374792;19;20711;-46
2022/07/20 00:59:20;;;;;;;4.73;4.33;;;25.80;47.70;;;;;;7376864;19;20372;-49
2022/07/20 01:01:50;;;;;;;6.33;4.47;;;25.60;48.20;;;;;;7375509;19;20364;-50
2022/07/20 01:04:19;;;;;;;6.07;4.50;;;25.30;48.30;;;;;;7375770;19;20380;-50
2022/07/20 01:06:49;;;;;;;5.00;4.20;;;24.90;48.90;;;;;;7372585;19;20572;-51
2022/07/20 01:09:20;;;;;;;6.80;4.67;;;24.70;49.30;;;;;;7379528;19;20496;-50
2022/07/20 01:11:52;;;;;;;5.23;4.67;;;24.80;49.50;;;;;;7378839;19;20405;-50
2022/07/20 01:14:24;;;;;;;6.20;4.13;;;24.90;49.20;;;;;;7377101;19;20375;-50
2022/07/20 01:16:54;;;;;;;4.60;3.80;;;24.90;49.20;;;;;;7372357;19;20971;-50
2022/07/20 01:19:23;;;;;;;7.83;4.00;;;24.90;49.20;;;;;;7374160;19;20905;-50
2022/07/20 01:21:58;;;;;;;5.43;4.27;;;24.80;49.60;;;;;;7363802;19;20372;-50
2022/07/20 01:24:28;;;;;;;4.67;4.17;;;24.70;50.10;;;;;;7379020;19;20475;-50
2022/07/20 01:26:57;;;;;;;8.60;4.87;;;24.70;50.00;;;;;;7373860;19;20491;-49
2022/07/20 01:29:27;;;;;;;5.70;4.07;;;24.50;50.00;;;;;;7382217;19;20816;-46
2022/07/20 01:31:56;;;;;;;6.43;3.90;;;24.40;50.20;;;;;;7375250;19;20430;-46
2022/07/20 01:34:26;;;;;;;9.17;4.40;;;24.20;50.60;;;;;;7377588;19;20380;-45
2022/07/20 01:36:58;;;;;;;5.17;3.87;;;24.20;51.10;;;;;;7376212;19;20385;-46
2022/07/20 01:39:27;;;;;;;6.63;4.10;;;24.10;51.10;;;;;;7373995;19;20364;-46
2022/07/20 01:41:56;;;;;;;4.70;4.10;;;24.20;50.90;;;;;;7374626;19;20381;-46
2022/07/20 01:44:26;;;;;;;5.57;3.90;;;24.10;50.80;;;;;;7380272;19;20384;-46
2022/07/20 01:46:55;;;;;;;4.33;3.93;;;24.20;50.80;;;;;;7377872;19;20368;-46
2022/07/20 01:49:27;;;;;;;5.83;3.90;;;24.10;51.10;;;;;;7381031;19;20384;-46
2022/07/20 01:52:00;;;;;;;6.00;4.07;;;24.10;51.20;;;;;;7374503;19;20455;-46
2022/07/20 01:54:30;;;;;;;6.60;4.93;;;24.10;51.30;;;;;;7376609;19;20384;-45
2022/07/20 01:56:59;;;;;;;4.10;3.50;;;24.00;51.20;;;;;;7378315;19;20451;-46
2022/07/20 01:59:31;;;;;;;8.60;4.10;;;24.10;51.10;;;;;;7380907;19;20420;-49
2022/07/20 02:02:03;;;;;;;8.27;3.70;;;23.80;51.30;;;;;;7375125;19;20390;-50
2022/07/20 02:04:33;;;;;;;5.23;3.90;;;23.70;52.30;;;;;;7379168;19;21002;-49
2022/07/20 02:07:05;;;;;;;5.43;4.23;;;23.60;52.20;;;;;;7375239;19;20413;-50
2022/07/20 02:09:34;;;;;;;5.10;4.40;;;23.50;52.20;;;;;;7379947;19;20380;-51
2022/07/20 02:12:03;;;;;;;6.60;3.73;;;23.40;52.40;;;;;;7375300;19;20376;-50
2022/07/20 02:14:33;;;;;;;7.17;3.90;;;23.30;52.70;;;;;;7376803;19;20384;-50
2022/07/20 02:17:02;;;;;;;8.27;3.70;;;23.20;53.00;;;;;;7373947;19;20401;-49
2022/07/20 02:19:32;;;;;;;4.90;3.63;;;23.20;53.00;;;;;;7377977;19;20391;-50
2022/07/20 02:22:04;;;;;;;4.10;3.30;;;23.20;53.00;;;;;;7375068;19;20782;-50
2022/07/20 02:24:33;;;;;;;7.80;4.50;;;23.10;53.30;;;;;;7377567;19;20423;-49
2022/07/20 02:27:03;;;;;;;5.10;4.13;;;23.20;53.20;;;;;;7374941;19;20462;-50
2022/07/20 02:29:35;;;;;;;3.90;3.50;;;23.20;53.30;;;;;;7375785;19;20387;-45
2022/07/20 02:32:04;;;;;;;6.33;4.00;;;23.50;52.70;;;;;;7369098;19;20387;-46
2022/07/20 02:34:34;;;;;;;6.57;3.60;;;23.60;52.00;;;;;;7373181;19;20377;-45
2022/07/20 02:37:06;;;;;;;6.00;3.80;;;23.60;52.40;;;;;;7370287;19;20932;-46
2022/07/20 02:39:36;;;;;;;4.43;3.63;;;23.40;53.00;;;;;;7371165;19;20377;-45
2022/07/20 02:42:05;;;;;;;9.03;3.93;;;23.30;52.90;;;;;;7370678;19;20408;-45
2022/07/20 02:44:35;;;;;;;5.30;4.10;;;23.10;53.10;;;;;;7372604;19;20463;-46
2022/07/20 02:47:04;;;;;;;8.80;4.07;;;23.30;53.20;;;;;;7370274;19;20736;-46
2022/07/20 02:49:34;;;;;;;7.23;3.80;;;23.60;52.60;;;;;;7370883;19;20380;-46
2022/07/20 02:52:06;;;;;;;4.83;4.33;;;23.80;51.90;;;;;;7374347;19;20496;-46
2022/07/20 02:54:37;;;;;;;7.53;3.57;;;23.80;51.80;;;;;;7373520;19;21045;-46
2022/07/20 02:57:07;;;;;;;6.27;4.00;;;23.70;52.40;;;;;;7371384;19;20379;-46
2022/07/20 02:59:39;;;;;;;4.70;3.97;;;23.50;52.50;;;;;;7376303;19;20424;-50
2022/07/20 03:02:08;;;;;;;6.43;3.83;;;23.40;53.00;;;;;;7368596;19;20383;-50
2022/07/20 03:04:38;;;;;;;6.73;3.83;;;23.40;53.00;;;;;;7374410;19;20376;-50
2022/07/20 03:07:10;;;;;;;5.87;4.40;;;23.30;52.50;;;;;;7375088;19;20376;-49
2022/07/20 03:09:39;;;;;;;8.00;3.67;;;23.40;52.50;;;;;;7373495;19;20777;-49
2022/07/20 03:12:10;;;;;;;4.40;3.50;;;23.40;52.40;;;;;;7370244;19;20380;-51
2022/07/20 03:14:40;;;;;;;5.70;3.97;;;23.40;52.60;;;;;;7369169;19;21020;-50
2022/07/20 03:17:09;;;;;;;7.40;4.30;;;23.50;52.60;;;;;;7366962;19;20376;-50
2022/07/20 03:19:41;;;;;;;6.70;3.30;;;23.70;52.60;;;;;;7376850;19;20904;-49
2022/07/20 03:22:13;;;;;;;5.97;4.50;;;23.70;52.40;;;;;;7368141;19;20375;-50
2022/07/20 03:24:43;;;;;;;5.13;3.63;;;23.60;52.60;;;;;;7372820;19;20379;-50
2022/07/20 03:27:14;;;;;;;5.50;4.07;;;23.30;52.90;;;;;;7370393;19;20939;-50
2022/07/20 03:29:44;;;;;;;5.33;3.83;;;23.00;53.70;;;;;;7374826;19;20860;-49
2022/07/20 03:32:14;;;;;;;5.30;3.50;;;22.80;54.90;;;;;;7377213;19;20375;-49
2022/07/20 03:34:43;;;;;;;4.73;3.80;;;22.70;54.80;;;;;;7375485;19;20416;-49
2022/07/20 03:37:15;;;;;;;5.50;3.77;;;22.60;55.10;;;;;;7374447;19;20476;-49
2022/07/20 03:39:45;;;;;;;5.70;4.10;;;22.50;55.10;;;;;;7375139;19;20383;-50
2022/07/20 03:42:14;;;;;;;5.83;3.97;;;22.70;54.80;;;;;;7377862;19;20866;-50
2022/07/20 03:44:44;;;;;;;5.87;3.73;;;22.80;55.50;;;;;;7373952;19;20399;-49
2022/07/20 03:47:13;;;;;;;4.80;3.70;;;22.80;54.70;;;;;;7376823;19;20445;-50
2022/07/20 03:49:43;;;;;;;5.10;4.23;;;22.80;54.60;;;;;;7380627;19;20419;-49
2022/07/20 03:52:15;;;;;;;6.20;3.70;;;22.70;55.00;;;;;;7383795;19;20455;-49
2022/07/20 03:54:46;;;;;;;6.23;4.20;;;22.60;55.10;;;;;;7383370;19;20403;-49
2022/07/20 03:57:16;;;;;;;7.97;4.40;;;22.60;55.20;;;;;;7383838;19;20405;-49
2022/07/20 03:59:46;;;;;;;6.93;4.60;;;22.80;54.80;;;;;;7381895;19;20511;-46
2022/07/20 04:02:15;;;;;;;7.97;4.07;;;22.80;54.20;;;;;;7384130;19;20940;-45
2022/07/20 04:04:45;;;;;;;9.63;4.10;;;22.90;54.40;;;;;;7383668;19;20483;-45
2022/07/20 04:07:17;;;;;;;3.90;3.50;;;23.20;54.10;;;;;;7381320;19;20378;-46
2022/07/20 04:09:46;;;;;;;5.07;3.73;;;23.50;53.50;;;;;;7381798;19;20372;-46
2022/07/20 04:12:19;;;;;;;9.03;4.20;;;23.60;53.30;;;;;;7383585;19;21483;-46
2022/07/20 04:14:49;;;;;;;10.40;4.07;;;23.60;52.90;;;;;;7377749;19;20380;-46
2022/07/20 04:17:19;;;;;;;5.03;3.73;;;23.50;53.30;;;;;;7380712;19;21031;-46
2022/07/20 04:19:49;;;;;;;8.23;3.70;;;23.30;53.50;;;;;;7382324;19;20376;-46
2022/07/20 04:22:21;;;;;;;4.93;3.67;;;23.20;54.00;;;;;;7383799;19;20409;-46
2022/07/20 04:24:50;;;;;;;7.00;4.00;;;23.10;54.30;;;;;;7380995;19;20393;-46
2022/07/20 04:27:20;;;;;;;6.17;4.60;;;23.10;54.20;;;;;;7378610;19;20391;-45
2022/07/20 04:29:49;;;;;;;3.80;3.43;;;23.20;54.10;;;;;;7381279;19;20364;-46
2022/07/20 04:32:19;;;;;;;5.80;3.97;;;23.10;54.30;;;;;;7368681;19;20482;-45
2022/07/20 04:34:49;;;;;;;7.23;4.03;;;23.00;54.60;;;;;;7371115;19;20744;-46
2022/07/20 04:37:21;;;;;;;8.40;3.90;;;23.10;54.70;;;;;;7366811;19;20388;-46
2022/07/20 04:39:50;;;;;;;8.00;3.87;;;23.10;54.50;;;;;;7375602;19;20372;-45
2022/07/20 04:42:22;;;;;;;5.80;3.90;;;23.20;54.70;;;;;;7381248;19;20372;-45
2022/07/20 04:44:52;;;;;;;5.10;3.93;;;23.00;54.60;;;;;;7378257;19;20379;-45
2022/07/20 04:47:21;;;;;;;4.60;4.13;;;23.00;55.10;;;;;;7377555;19;20372;-45
2022/07/20 04:49:51;;;;;;;6.47;4.40;;;23.10;55.60;;;;;;7382629;19;20726;-46
2022/07/20 04:52:23;;;;;;;6.50;4.33;;;23.00;56.00;;;;;;7378822;19;21262;-45
2022/07/20 04:54:55;;;;;;;6.63;4.90;;;23.00;56.10;;;;;;7373309;19;20360;-46
2022/07/20 04:57:25;;;;;;;8.70;3.70;;;23.10;55.80;;;;;;7363394;19;20365;-45
2022/07/20 04:59:54;;;;;;;7.00;4.00;;;23.20;55.60;;;;;;7367016;19;20451;-46
2022/07/20 05:02:24;;;;;;;7.20;4.40;;;23.40;55.40;;;;;;7370523;19;20372;-46
2022/07/20 05:04:53;;;;;;;5.80;3.70;;;23.70;54.80;;;;;;7375314;19;20405;-46
2022/07/20 05:07:25;;;;;;;4.23;3.43;;;23.90;54.50;;;;;;7374161;19;20897;-46
2022/07/20 05:09:55;;;;;;;6.50;4.20;;;24.10;54.10;;;;;;7377151;19;20372;-46
2022/07/20 05:12:27;;;;;;;5.13;4.20;;;24.10;54.20;;;;;;7376230;19;20375;-45
2022/07/20 05:14:58;;;;;;;8.53;4.17;;;24.30;53.90;;;;;;7372293;19;21347;-46
2022/07/20 05:17:28;;;;;;;4.67;3.80;;;24.30;53.50;;;;;;7364962;19;21663;-46
2022/07/20 05:19:57;;;;;;;8.63;4.27;;;24.40;53.70;;;;;;7365827;19;20388;-46
2022/07/20 05:22:29;;;;;;;6.60;4.63;;;24.50;53.90;;;;;;7378471;19;20455;-46
2022/07/20 05:24:59;;;;;;;7.07;4.87;;;24.60;54.00;;;;;;7376192;19;20376;-46
2022/07/20 05:27:31;;;;;;;4.53;4.10;;;24.70;53.80;;;;;;7377548;19;20372;-46
2022/07/20 05:30:00;;;;;;;7.23;4.70;;;24.70;53.40;;;;;;7380514;19;20902;-46
2022/07/20 05:32:30;;;;;;;9.90;4.50;;;24.80;53.20;;;;;;7376758;19;20387;-46
2022/07/20 05:34:59;;;;;;;5.67;4.50;;;24.90;53.70;;;;;;7375820;19;20407;-46
2022/07/20 05:37:32;;;;;;;5.50;4.60;;;24.80;54.10;;;;;;7370310;19;20393;-46
2022/07/20 05:40:03;;;;;;;6.60;4.20;;;24.90;53.60;;;;;;7383652;19;20416;-50
2022/07/20 05:42:33;;;;;;;6.80;5.00;;;25.00;53.40;;;;;;7383622;19;20376;-50
2022/07/20 05:45:02;;;;;;;7.00;5.20;;;25.10;53.90;;;;;;7379025;19;20399;-50
2022/07/20 05:47:32;;;;;;;9.70;5.77;;;25.10;52.60;;;;;;7383147;19;20409;-50
2022/07/20 05:50:01;;;;;;;6.40;5.20;;;25.20;52.70;;;;;;7382071;19;20737;-51
2022/07/20 05:52:33;;;;;;;7.63;5.13;;;25.30;52.60;;;;;;7367420;19;20381;-50
2022/07/20 05:55:03;;;;;;;11.30;5.37;;;25.40;52.50;;;;;;7372418;19;20371;-50
2022/07/20 05:57:34;;;;;;;7.97;5.60;;;25.40;52.40;;;;;;7369584;19;20388;-51
2022/07/20 06:00:09;;;;;;;9.37;6.33;;;25.50;52.60;;;;;;7370998;19;20453;-50
2022/07/20 06:02:39;;;;;;;7.83;5.13;;;25.50;52.70;;;;;;7372498;19;20436;-50
2022/07/20 06:05:09;;;;;;;13.87;6.10;;;25.60;52.30;;;;;;7367633;19;20383;-50
2022/07/20 06:07:41;;;;;;;8.03;6.00;;;25.70;52.40;;;;;;7374949;19;20368;-50
2022/07/20 06:10:11;;;;;;;8.47;5.30;;;25.70;51.60;;;;;;7368928;19;20735;-46
2022/07/20 06:12:40;;;;;;;9.20;5.87;;;25.80;51.10;;;;;;7358598;19;20462;-46
2022/07/20 06:15:11;;;;;;;5.97;5.03;;;25.90;50.40;;;;;;7370241;19;20376;-46
2022/07/20 06:17:42;;;;;;;7.53;5.30;;;26.00;50.80;;;;;;7370333;19;21339;-46
2022/07/20 06:20:15;;;;;;;7.27;5.83;;;26.00;51.00;;;;;;7371023;19;20372;-46
2022/07/20 06:22:48;;;;;;;7.73;5.47;;;26.20;50.90;;;;;;7369057;19;21075;-46
2022/07/20 06:25:18;;;;;;;9.43;5.63;;;26.40;50.90;;;;;;7372353;19;20464;-46
2022/07/20 06:27:49;;;;;;;8.70;5.97;;;26.50;50.50;;;;;;7361498;19;20376;-46
2022/07/20 06:30:21;;;;;;;8.17;6.10;;;26.70;50.40;;;;;;7361673;19;20455;-47
2022/07/20 06:32:50;;;;;;;10.37;5.80;;;26.70;49.70;;;;;;7371686;19;20372;-47
2022/07/20 06:35:21;;;;;;;11.10;5.90;;;26.90;49.40;;;;;;7366071;19;20379;-47
2022/07/20 06:37:53;;;;;;;8.37;5.70;;;26.90;49.70;;;;;;7370387;19;20384;-47
2022/07/20 06:40:23;;;;;;;10.83;6.80;;;27.00;48.50;;;;;;7361838;19;21158;-47
2022/07/20 06:42:52;;;;;;;6.97;6.23;;;27.10;48.60;;;;;;7368489;19;20368;-47
2022/07/20 06:45:22;;;;;;;10.00;6.97;;;27.20;48.20;;;;;;7362978;19;20379;-47
2022/07/20 06:47:51;;;;;;;7.30;5.70;;;27.30;48.50;;;;;;7376031;19;20440;-47
2022/07/20 06:50:21;;;;;;;7.90;6.13;;;27.30;48.70;;;;;;7365513;19;20376;-47
2022/07/20 06:52:53;;;;;;;12.07;6.17;;;27.30;48.40;;;;;;7376851;19;20782;-47
2022/07/20 06:55:22;;;;;;;9.90;6.80;;;27.40;47.70;;;;;;7380247;19;20378;-47
2022/07/20 06:57:52;;;;;;;9.33;6.03;;;27.50;47.40;;;;;;7381888;19;20383;-47
2022/07/20 07:00:21;;;;;;;11.40;6.10;;;27.60;47.10;;;;;;7380200;19;20435;-47
2022/07/20 07:02:51;;;;;;;7.23;5.40;;;27.80;46.90;;;;;;7372314;19;20383;-47
2022/07/20 07:05:21;;;;;;;7.10;6.40;;;27.80;47.10;;;;;;7378071;19;20905;-47
2022/07/20 07:07:53;;;;;;;9.63;6.30;;;28.00;46.90;;;;;;7381267;19;20923;-47
2022/07/20 07:10:24;;;;;;;8.53;6.43;;;28.10;46.50;;;;;;7381309;19;20368;-47
2022/07/20 07:12:56;;;;;;;8.50;6.63;;;28.30;46.70;;;;;;7384244;19;20376;-47
2022/07/20 07:15:27;;;;;;;12.00;6.40;;;28.40;47.10;;;;;;7373613;19;20376;-47
2022/07/20 07:17:57;;;;;;;8.57;6.30;;;28.40;46.10;;;;;;7375827;19;20380;-47
2022/07/20 07:20:26;;;;;;;8.03;6.60;;;28.60;46.10;;;;;;7381153;19;20383;-47
2022/07/20 07:22:58;;;;;;;10.67;6.23;;;28.70;46.10;;;;;;7381660;19;20379;-47
2022/07/20 07:25:28;;;;;;;10.50;8.07;;;28.90;45.50;;;;;;7381789;19;21023;-47
2022/07/20 07:27:57;;;;;;;8.17;6.80;;;29.00;46.10;;;;;;7373720;19;20405;-47
2022/07/20 07:30:27;;;;;;;11.10;7.53;;;29.20;45.20;;;;;;7376271;19;20376;-47
2022/07/20 07:32:58;;;;;;;9.83;7.37;;;29.30;44.90;;;;;;7385594;19;20742;-47
2022/07/20 07:35:28;;;;;;;10.30;7.80;;;29.40;44.40;;;;;;7379531;19;20822;-47
2022/07/20 07:38:00;;;;;;;10.87;8.40;;;29.50;43.80;;;;;;7373842;19;20384;-47
2022/07/20 07:40:32;;;;;;;7.67;6.60;;;29.60;43.80;;;;;;7383407;19;20383;-50
2022/07/20 07:43:01;;;;;;;13.07;7.40;;;29.80;43.60;;;;;;7383520;19;20905;-51
2022/07/20 07:45:31;;;;;;;8.63;7.10;;;29.90;43.40;;;;;;7383489;19;21367;-50
2022/07/20 07:48:02;;;;;;;11.20;7.17;;;30.10;43.20;;;;;;7378311;19;20379;-50
2022/07/20 07:50:36;;;;;;;8.57;6.70;;;30.20;41.80;;;;;;7379616;19;20380;-50
2022/07/20 07:53:09;;;;;;;8.83;7.43;;;30.30;42.30;;;;;;7385452;19;20388;-50
2022/07/20 07:55:40;;;;;;;11.83;7.40;;;30.50;42.20;;;;;;7385741;19;20893;-51
2022/07/20 07:58:11;;;;;;;6.90;6.00;;;30.60;41.90;;;;;;7388516;19;20811;-50
2022/07/20 08:00:41;;;;;;;8.80;6.33;;;30.70;41.50;;;;;;7387541;19;20431;-50
2022/07/20 08:03:11;;;;;;;6.97;6.27;;;30.80;40.90;;;;;;7391744;19;20383;-50
2022/07/20 08:05:43;;;;;;;10.83;6.33;;;31.00;40.90;;;;;;7385813;19;20388;-50
2022/07/20 08:08:17;;;;;;;8.57;6.63;;;31.10;40.60;;;;;;7388084;19;20910;-50
2022/07/20 08:10:47;;;;;;;7.23;5.77;;;31.30;39.90;;;;;;7387653;19;20376;-50
2022/07/20 08:13:17;;;;;;;7.63;5.90;;;31.30;39.30;;;;;;7386139;19;20365;-50
2022/07/20 08:15:46;;;;;;;10.57;8.73;;;31.50;39.80;;;;;;7387848;19;20436;-50
2022/07/20 08:18:16;;;;;;;7.13;6.43;;;31.70;39.50;;;;;;7386728;19;20906;-47
2022/07/20 08:20:46;;;;;;;6.87;5.90;;;31.80;39.40;;;;;;7388279;19;20382;-47
2022/07/20 08:23:18;;;;;;;8.20;7.40;;;31.90;38.80;;;;;;7390572;19;20416;-47
2022/07/20 08:25:47;;;;;;;10.80;5.63;;;32.10;38.70;;;;;;7385954;19;20932;-48
2022/07/20 08:28:20;;;;;;;9.37;6.50;;;32.30;38.80;;;;;;7388113;19;20372;-48
2022/07/20 08:30:53;;;;;;;8.47;6.40;;;32.40;38.60;;;;;;7386445;19;20375;-47
2022/07/20 08:33:23;;;;;;;8.17;6.37;;;32.60;37.90;;;;;;7389487;19;20682;-47
2022/07/20 08:35:52;;;;;;;13.50;6.67;;;32.60;38.30;;;;;;7382229;19;20378;-48
2022/07/20 08:38:25;;;;;;;10.43;6.30;;;32.80;37.90;;;;;;7387027;19;20890;-48
2022/07/20 08:40:58;;;;;;;21.63;6.73;;;33.00;37.50;;;;;;7388488;19;20476;-47
2022/07/20 08:43:29;;;;;;;8.63;5.47;;;33.10;36.90;;;;;;7387641;19;20379;-47
2022/07/20 08:45:59;;;;;;;8.87;6.50;;;33.30;36.50;;;;;;7384071;19;20380;-48
2022/07/20 08:48:29;;;;;;;10.37;6.13;;;33.50;36.70;;;;;;7387089;19;20380;-48
2022/07/20 08:51:01;;;;;;;9.53;5.80;;;33.60;35.90;;;;;;7388871;19;20809;-51
2022/07/20 08:53:33;;;;;;;11.17;8.53;;;33.80;35.80;;;;;;7386829;19;20428;-52
2022/07/20 08:56:02;;;;;;;7.57;6.87;;;33.90;35.60;;;;;;7381764;19;20735;-51
2022/07/20 08:58:35;;;;;;;8.10;6.40;;;34.10;34.90;;;;;;7383329;19;20743;-51
2022/07/20 09:01:05;;;;;;;7.43;6.30;;;34.20;34.60;;;;;;7383318;19;20450;-51
2022/07/20 09:03:35;;;;;;;11.60;7.57;;;34.30;34.60;;;;;;7387455;19;20372;-51
2022/07/20 09:06:08;;;;;;;7.13;5.67;;;34.50;34.50;;;;;;7386869;19;20375;-51
2022/07/20 09:09:05;;;;;;;6.90;6.20;;;34.70;34.30;;;;;;7388078;19;20706;-51
2022/07/20 09:11:37;;;;;;;6.40;5.80;;;35.10;33.50;;;;;;7387645;19;20380;-51
2022/07/20 09:14:06;;;;;;;6.80;6.20;;;35.20;33.50;;;;;;7388455;19;20386;-51
2022/07/20 09:16:42;;;;;;;7.93;5.60;;;35.40;33.30;;;;;;7388954;19;20388;-52
2022/07/20 09:19:13;;;;;;;18.00;7.07;;;35.60;33.30;;;;;;7379781;19;20745;-51
2022/07/20 09:21:42;;;;;;;8.33;5.97;;;35.60;33.40;;;;;;7386663;19;20449;-51
2022/07/20 09:24:14;;;;;;;9.57;6.20;;;35.80;33.80;;;;;;7385899;19;20409;-51
2022/07/20 09:26:44;;;;;;;11.20;6.80;;;36.00;33.60;;;;;;7384891;19;20400;-51
2022/07/20 09:29:16;;;;;;;12.03;6.40;;;36.20;33.00;;;;;;7384647;19;20372;-51
2022/07/20 09:31:49;;;;;;;8.27;6.10;;;36.40;33.20;;;;;;7385164;19;20383;-51
2022/07/20 09:34:24;;;;;;;9.30;6.67;;;36.60;32.20;;;;;;7384582;19;20420;-51
2022/07/20 09:36:57;;;;;;;8.33;5.90;;;36.80;31.90;;;;;;7385308;19;20372;-52
2022/07/20 09:39:29;;;;;;;10.70;8.73;;;36.80;31.80;;;;;;7382900;19;20894;-52
2022/07/20 09:42:01;;;;;;;9.13;7.17;;;37.00;31.60;;;;;;7385116;19;20738;-51
2022/07/20 09:44:32;;;;;;;7.13;6.03;;;37.20;30.70;;;;;;7384566;19;20420;-51
2022/07/20 09:47:14;;;;;;;8.33;6.57;;;37.40;30.60;;;;;;7385052;19;20386;-51
2022/07/20 09:49:46;;;;;;;13.60;10.20;;;37.60;30.80;;;;;;7382618;19;20383;-51
2022/07/20 09:52:15;;;;;;;11.13;9.60;;;37.80;30.60;;;;;;7386544;19;20909;-51
2022/07/20 09:54:49;;;;;;;13.43;8.40;;;38.00;30.20;;;;;;7383401;19;20429;-51
2022/07/20 09:57:23;;;;;;;17.43;11.80;;;38.30;28.90;;;;;;7385301;19;20755;-52
2022/07/20 09:59:55;;;;;;;12.13;8.87;;;38.40;28.90;;;;;;7380525;19;20439;-53
2022/07/20 10:02:29;;;;;;;7.00;5.60;;;38.60;28.70;;;;;;7385227;19;20383;-51
2022/07/20 10:05:02;;;;;;;9.23;7.10;;;38.80;28.40;;;;;;7384919;19;20888;-52
2022/07/20 10:07:33;;;;;;;10.43;8.23;;;38.90;29.00;;;;;;7385310;19;20835;-52
2022/07/20 10:10:06;;;;;;;10.93;6.80;;;39.00;28.10;;;;;;7386414;19;20377;-51
2022/07/20 10:12:35;;;;;;;7.53;6.53;;;39.20;27.80;;;;;;7386646;19;20372;-52
2022/07/20 10:15:07;;;;;;;6.53;5.60;;;39.30;28.00;;;;;;7385989;19;20421;-51
2022/07/20 10:17:38;;;;;;;7.63;6.00;;;39.30;28.40;;;;;;7384611;19;20773;-52
2022/07/20 10:20:30;;;;;;;5.93;5.30;;;39.70;28.10;;;;;;7379930;19;20373;-48
2022/07/20 10:23:32;;;;;;;7.20;5.00;;;40.40;27.30;;;;;;7383467;19;20443;-48
2022/07/20 10:26:04;;;;;;;6.07;5.00;;;41.30;26.60;;;;;;7380133;19;20404;-49
2022/07/20 10:28:36;;;;;;;7.30;5.37;;;41.50;26.20;;;;;;7372979;19;20400;-49
2022/07/20 10:31:16;;;;;;;8.20;5.17;;;41.70;26.50;;;;;;7384065;19;20471;-49
2022/07/20 10:33:48;;;;;;;5.70;5.20;;;41.90;26.00;;;;;;7382655;19;20386;-48
2022/07/20 10:39:29;;;;;;;5.77;5.17;;;41.60;26.40;;;;;;7385751;19;20447;-49
2022/07/20 10:42:31;;;;;;;6.57;5.97;;;41.30;26.40;;;;;;7385326;19;20966;-48
2022/07/20 10:45:34;;;;;;;6.97;5.10;;;41.30;26.20;;;;;;7382451;19;20398;-48
2022/07/20 10:48:20;;;;;;;10.93;5.50;;;41.30;26.30;;;;;;7383789;19;20364;-49
2022/07/20 10:50:51;;;;;;;7.33;5.37;;;41.30;26.20;;;;;;7383396;19;21027;-48
2022/07/20 10:53:34;;;;;;;6.03;5.53;;;41.30;26.20;;;;;;7383595;19;20939;-48
2022/07/20 10:56:06;;;;;;;8.47;6.03;;;41.50;26.40;;;;;;7385893;19;20372;-49
2022/07/20 10:58:44;;;;;;;5.40;5.00;;;41.40;26.30;;;;;;7382061;19;20379;-49
2022/07/20 11:01:16;;;;;;;8.77;5.40;;;41.30;26.40;;;;;;7381079;19;20437;-52
2022/07/20 11:03:50;;;;;;;6.57;5.93;;;41.10;26.30;;;;;;7385463;19;20390;-52
2022/07/20 11:06:23;;;;;;;6.70;5.10;;;40.90;26.50;;;;;;7381212;19;20739;-52
2022/07/20 11:08:53;;;;;;;6.70;5.10;;;40.90;26.60;;;;;;7385612;19;20413;-52
2022/07/20 11:11:24;;;;;;;10.87;6.00;;;41.20;26.70;;;;;;7384449;19;20377;-52
2022/07/20 11:13:59;;;;;;;6.97;5.77;;;41.30;26.70;;;;;;7384831;19;20468;-52
2022/07/20 11:16:30;;;;;;;6.50;5.90;;;41.50;26.40;;;;;;7381263;19;20399;-52
2022/07/20 11:19:02;;;;;;;8.20;5.37;;;41.40;26.50;;;;;;7380523;19;20459;-52
2022/07/20 11:21:35;;;;;;;5.50;5.00;;;41.30;26.70;;;;;;7381953;19;20732;-52
2022/07/20 11:24:05;;;;;;;10.47;6.00;;;41.20;27.00;;;;;;7383816;19;20420;-52
2022/07/20 11:26:35;;;;;;;6.00;5.43;;;41.30;26.60;;;;;;7381463;19;20869;-52
2022/07/20 11:29:14;;;;;;;6.80;6.20;;;41.20;26.60;;;;;;7382612;19;20376;-52
2022/07/20 11:31:46;;;;;;;6.40;5.83;;;41.20;26.80;;;;;;7385481;19;20387;-52
2022/07/20 11:34:18;;;;;;;6.73;6.17;;;41.20;27.30;;;;;;7383424;19;20375;-52
2022/07/20 11:36:49;;;;;;;6.83;5.03;;;41.50;26.60;;;;;;7382277;19;20401;-52
2022/07/20 11:39:21;;;;;;;13.80;11.40;;;41.40;26.40;;;;;;7379286;19;20767;-52
2022/07/20 11:41:53;;;;;;;6.70;5.57;;;41.40;26.50;;;;;;7384917;19;20375;-51
2022/07/20 11:44:27;;;;;;;7.93;5.80;;;41.30;26.70;;;;;;7383061;19;21322;-52
2022/07/20 11:46:57;;;;;;;6.37;5.50;;;41.40;26.50;;;;;;7370193;19;20383;-52
2022/07/20 11:49:27;;;;;;;7.93;6.90;;;41.50;26.80;;;;;;7364589;19;20372;-52
2022/07/20 11:51:59;;;;;;;7.20;5.90;;;41.70;26.80;;;;;;7373353;19;20379;-52
2022/07/20 11:54:33;;;;;;;9.03;6.40;;;41.90;26.50;;;;;;7371588;19;20416;-51
2022/07/20 11:57:03;;;;;;;6.47;5.73;;;41.90;26.60;;;;;;7381687;19;20368;-52
2022/07/20 11:59:35;;;;;;;7.93;6.67;;;41.90;26.70;;;;;;7371800;19;20424;-52
2022/07/20 12:02:07;;;;;;;8.63;6.27;;;42.00;26.80;;;;;;7377684;19;21003;-52
2022/07/20 12:04:37;;;;;;;6.77;6.10;;;42.10;26.60;;;;;;7374145;19;20379;-52
2022/07/20 12:09:53;;;;;;;7.03;6.17;;;42.30;26.30;;;;;;7377162;19;20921;-52
2022/07/20 12:15:13;;;;;;;10.27;6.97;;;42.00;26.70;;;;;;7378504;19;20777;-52
2022/07/20 12:17:52;;;;;;;6.03;5.57;;;42.10;26.60;;;;;;7386041;19;20378;-52
2022/07/20 12:20:28;;;;;;;6.83;6.13;;;41.90;26.80;;;;;;7384499;19;20750;-52
2022/07/20 12:22:59;;;;;;;6.33;5.67;;;41.90;26.80;;;;;;7381314;19;20360;-52
2022/07/20 12:25:39;;;;;;;6.97;6.37;;;41.60;26.80;;;;;;7380998;19;20538;-53
2022/07/20 12:28:09;;;;;;;7.33;6.07;;;41.50;27.30;;;;;;7378399;19;20817;-52
2022/07/20 12:30:41;;;;;;;11.17;6.73;;;41.50;27.30;;;;;;7384639;19;21250;-52
2022/07/20 12:33:13;;;;;;;10.53;7.03;;;41.30;27.80;;;;;;7386009;19;20381;-52
2022/07/20 12:35:47;;;;;;;7.57;6.90;;;41.40;28.20;;;;;;7382786;19;20387;-52
2022/07/20 12:38:21;;;;;;;11.60;8.53;;;41.50;27.60;;;;;;7385654;19;20399;-52
2022/07/20 12:40:51;;;;;;;8.73;6.30;;;41.40;27.80;;;;;;7385339;19;20747;-52
2022/07/20 12:43:32;;;;;;;13.30;7.30;;;41.40;28.10;;;;;;7384984;19;20906;-52
2022/07/20 12:46:08;;;;;;;8.47;7.67;;;41.10;28.50;;;;;;7386240;19;20376;-52
2022/07/20 12:48:38;;;;;;;8.13;7.20;;;40.30;28.80;;;;;;7381764;19;20367;-52
2022/07/20 12:51:08;;;;;;;9.67;8.70;;;40.10;29.10;;;;;;7386083;19;20406;-52
2022/07/20 12:53:38;;;;;;;9.33;8.33;;;40.10;29.30;;;;;;7381757;19;20383;-52
2022/07/20 12:56:09;;;;;;;10.53;9.43;;;39.60;29.80;;;;;;7379454;19;20372;-52
2022/07/20 12:58:39;;;;;;;10.13;8.90;;;39.50;30.10;;;;;;7379591;19;20383;-52
2022/07/20 13:01:15;;;;;;;11.40;10.30;;;39.50;30.10;;;;;;7381270;19;20440;-52
2022/07/20 13:03:44;;;;;;;13.97;11.27;;;39.30;30.70;;;;;;7381885;19;20401;-53
2022/07/20 13:06:18;;;;;;;12.33;10.90;;;38.80;31.20;;;;;;7377925;19;20384;-52
2022/07/20 13:08:51;;;;;;;13.20;9.97;;;38.60;31.60;;;;;;7383166;19;20424;-52
2022/07/20 13:11:21;;;;;;;12.33;11.20;;;38.20;32.10;;;;;;7385310;19;20372;-52
2022/07/20 13:13:51;;;;;;;11.77;10.60;;;37.90;32.50;;;;;;7376585;19;21876;-52
2022/07/20 13:16:25;;;;;;;12.70;11.53;;;37.70;32.70;;;;;;7375049;19;20388;-52
2022/07/20 13:18:59;;;;;;;12.40;11.20;;;37.30;33.00;;;;;;7123417;19;3006657;-52